sensor_id;sensor_type;location;lat;lon;timestamp;temperature;humidity
45535;DHT22;35892;48.798;9.698;2022-10-16T00:01:52;14.70;99.90
45535;DHT22;35892;48.798;9.698;2022-10-16T00:04:18;14.70;99.90
45535;DHT22;35892;48.798;9.698;2022-10-16T00:06:45;14.70;99.90
45535;DHT22;35892;48.798;9.698;2022-10-16T00:09:13;14.70;99.90
45535;DHT22;35892;48.798;9.698;2022-10-16T00:11:45;14.70;99.90
45535;DHT22;35892;48.798;9.698;2022-10-16T00:14:14;14.70;99.90
45535;DHT22;35892;48.798;9.698;2022-10-16T00:16:41;14.70;99.90
45535;DHT22;35892;48.798;9.698;2022-10-16T00:19:11;14.70;99.90
45535;DHT22;35892;48.798;9.698;2022-10-16T00:21:41;14.70;99.90
45535;DHT22;35892;48.798;9.698;2022-10-16T00:24:12;14.70;99.90
45535;DHT22;35892;48.798;9.698;2022-10-16T00:26:40;14.70;99.90
45535;DHT22;35892;48.798;9.698;2022-10-16T00:29:07;14.70;99.90
45535;DHT22;35892;48.798;9.698;2022-10-16T00:31:34;14.70;99.90
45535;DHT22;35892;48.798;9.698;2022-10-16T00:34:03;14.70;99.90
45535;DHT22;35892;48.798;9.698;2022-10-16T00:36:35;14.70;99.90
45535;DHT22;35892;48.798;9.698;2022-10-16T00:39:04;14.60;99.90
45535;DHT22;35892;48.798;9.698;2022-10-16T00:41:33;14.60;99.90
45535;DHT22;35892;48.798;9.698;2022-10-16T00:44:04;14.60;99.90
45535;DHT22;35892;48.798;9.698;2022-10-16T00:46:52;14.60;99.90
45535;DHT22;35892;48.798;9.698;2022-10-16T00:49:21;14.60;99.90
45535;DHT22;35892;48.798;9.698;2022-10-16T00:51:50;14.50;99.90
45535;DHT22;35892;48.798;9.698;2022-10-16T00:54:24;14.50;99.90
45535;DHT22;35892;48.798;9.698;2022-10-16T00:56:53;14.50;99.90
45535;DHT22;35892;48.798;9.698;2022-10-16T00:59:24;14.40;99.90
45535;DHT22;35892;48.798;9.698;2022-10-16T01:01:54;14.40;99.90
45535;DHT22;35892;48.798;9.698;2022-10-16T01:04:22;14.30;99.90
45535;DHT22;35892;48.798;9.698;2022-10-16T01:12:44;14.20;99.90
45535;DHT22;35892;48.798;9.698;2022-10-16T01:21:08;14.10;99.90
45535;DHT22;35892;48.798;9.698;2022-10-16T01:29:11;14.10;99.90
45535;DHT22;35892;48.798;9.698;2022-10-16T01:31:42;14.20;99.90
45535;DHT22;35892;48.798;9.698;2022-10-16T01:34:22;14.20;99.90
45535;DHT22;35892;48.798;9.698;2022-10-16T01:36:56;14.20;99.90
45535;DHT22;35892;48.798;9.698;2022-10-16T01:39:27;14.20;99.90
45535;DHT22;35892;48.798;9.698;2022-10-16T01:44:33;14.20;99.90
45535;DHT22;35892;48.798;9.698;2022-10-16T01:47:04;14.20;99.90
45535;DHT22;35892;48.798;9.698;2022-10-16T01:49:36;14.20;99.90
45535;DHT22;35892;48.798;9.698;2022-10-16T01:52:14;14.20;99.90
45535;DHT22;35892;48.798;9.698;2022-10-16T01:54:46;14.30;99.90
45535;DHT22;35892;48.798;9.698;2022-10-16T01:57:16;14.30;99.90
45535;DHT22;35892;48.798;9.698;2022-10-16T01:59:48;14.20;99.90
45535;DHT22;35892;48.798;9.698;2022-10-16T02:02:20;14.20;99.90
45535;DHT22;35892;48.798;9.698;2022-10-16T02:04:54;14.20;99.90
45535;DHT22;35892;48.798;9.698;2022-10-16T02:07:24;14.20;99.90
45535;DHT22;35892;48.798;9.698;2022-10-16T02:09:52;14.20;99.90
45535;DHT22;35892;48.798;9.698;2022-10-16T02:12:36;14.20;99.90
45535;DHT22;35892;48.798;9.698;2022-10-16T02:15:06;14.20;99.90
45535;DHT22;35892;48.798;9.698;2022-10-16T02:17:33;14.20;99.90
45535;DHT22;35892;48.798;9.698;2022-10-16T02:20:05;14.20;99.90
45535;DHT22;35892;48.798;9.698;2022-10-16T02:22:34;14.10;99.90
45535;DHT22;35892;48.798;9.698;2022-10-16T02:25:12;14.10;99.90
45535;DHT22;35892;48.798;9.698;2022-10-16T02:28:13;14.10;99.90
45535;DHT22;35892;48.798;9.698;2022-10-16T02:33:10;14.10;99.90
45535;DHT22;35892;48.798;9.698;2022-10-16T02:35:41;14.10;99.90
45535;DHT22;35892;48.798;9.698;2022-10-16T02:38:09;14.00;99.90
45535;DHT22;35892;48.798;9.698;2022-10-16T02:40:42;14.00;99.90
45535;DHT22;35892;48.798;9.698;2022-10-16T02:43:11;14.00;99.90
45535;DHT22;35892;48.798;9.698;2022-10-16T02:45:41;14.00;99.90
45535;DHT22;35892;48.798;9.698;2022-10-16T02:48:10;14.10;99.90
45535;DHT22;35892;48.798;9.698;2022-10-16T02:50:39;14.10;99.90
45535;DHT22;35892;48.798;9.698;2022-10-16T02:53:06;14.10;99.90
45535;DHT22;35892;48.798;9.698;2022-10-16T02:55:33;14.20;99.90
45535;DHT22;35892;48.798;9.698;2022-10-16T02:58:02;14.10;99.90
45535;DHT22;35892;48.798;9.698;2022-10-16T03:00:31;14.10;99.90
45535;DHT22;35892;48.798;9.698;2022-10-16T03:02:58;14.10;99.90
45535;DHT22;35892;48.798;9.698;2022-10-16T03:05:27;14.10;99.90
45535;DHT22;35892;48.798;9.698;2022-10-16T03:07:54;14.10;99.90
45535;DHT22;35892;48.798;9.698;2022-10-16T03:10:25;14.10;99.90
45535;DHT22;35892;48.798;9.698;2022-10-16T03:12:52;14.10;99.90
45535;DHT22;35892;48.798;9.698;2022-10-16T03:15:23;14.10;99.90
45535;DHT22;35892;48.798;9.698;2022-10-16T03:17:56;14.00;99.90
45535;DHT22;35892;48.798;9.698;2022-10-16T03:20:26;14.00;99.90
45535;DHT22;35892;48.798;9.698;2022-10-16T03:22:55;14.10;99.90
45535;DHT22;35892;48.798;9.698;2022-10-16T03:25:24;14.10;99.90
45535;DHT22;35892;48.798;9.698;2022-10-16T03:27:51;14.00;99.90
45535;DHT22;35892;48.798;9.698;2022-10-16T03:30:23;14.00;99.90
45535;DHT22;35892;48.798;9.698;2022-10-16T03:32:49;14.00;99.90
45535;DHT22;35892;48.798;9.698;2022-10-16T03:35:21;14.00;99.90
45535;DHT22;35892;48.798;9.698;2022-10-16T03:37:48;14.00;99.90
45535;DHT22;35892;48.798;9.698;2022-10-16T03:40:19;14.00;99.90
45535;DHT22;35892;48.798;9.698;2022-10-16T03:42:51;14.00;99.90
45535;DHT22;35892;48.798;9.698;2022-10-16T03:45:20;14.00;99.90
45535;DHT22;35892;48.798;9.698;2022-10-16T03:47:47;14.00;99.90
45535;DHT22;35892;48.798;9.698;2022-10-16T03:50:14;13.90;99.90
45535;DHT22;35892;48.798;9.698;2022-10-16T03:52:40;13.90;99.90
45535;DHT22;35892;48.798;9.698;2022-10-16T03:55:07;13.90;99.90
45535;DHT22;35892;48.798;9.698;2022-10-16T03:57:39;13.90;99.90
45535;DHT22;35892;48.798;9.698;2022-10-16T04:00:06;13.90;99.90
45535;DHT22;35892;48.798;9.698;2022-10-16T04:02:33;13.90;99.90
45535;DHT22;35892;48.798;9.698;2022-10-16T04:05:02;13.80;99.90
45535;DHT22;35892;48.798;9.698;2022-10-16T04:07:31;13.80;99.90
45535;DHT22;35892;48.798;9.698;2022-10-16T04:09:58;13.80;99.90
45535;DHT22;35892;48.798;9.698;2022-10-16T04:12:26;13.70;99.90
45535;DHT22;35892;48.798;9.698;2022-10-16T04:14:53;13.70;99.90
45535;DHT22;35892;48.798;9.698;2022-10-16T04:17:20;13.70;99.90
45535;DHT22;35892;48.798;9.698;2022-10-16T04:19:49;13.60;99.90
45535;DHT22;35892;48.798;9.698;2022-10-16T04:22:16;13.60;99.90
45535;DHT22;35892;48.798;9.698;2022-10-16T04:24:42;13.50;99.90
45535;DHT22;35892;48.798;9.698;2022-10-16T04:27:09;13.50;99.90
45535;DHT22;35892;48.798;9.698;2022-10-16T04:29:38;13.40;99.90
45535;DHT22;35892;48.798;9.698;2022-10-16T04:32:05;13.40;99.90
45535;DHT22;35892;48.798;9.698;2022-10-16T04:34:31;13.40;99.90
45535;DHT22;35892;48.798;9.698;2022-10-16T04:37:01;13.50;99.90
45535;DHT22;35892;48.798;9.698;2022-10-16T04:39:32;13.50;99.90
45535;DHT22;35892;48.798;9.698;2022-10-16T04:41:58;13.50;99.90
45535;DHT22;35892;48.798;9.698;2022-10-16T04:44:30;13.50;99.90
45535;DHT22;35892;48.798;9.698;2022-10-16T04:46:59;13.50;99.90
45535;DHT22;35892;48.798;9.698;2022-10-16T04:49:25;13.50;99.90
45535;DHT22;35892;48.798;9.698;2022-10-16T04:51:54;13.50;99.90
45535;DHT22;35892;48.798;9.698;2022-10-16T04:54:21;13.50;99.90
45535;DHT22;35892;48.798;9.698;2022-10-16T04:56:48;13.50;99.90
45535;DHT22;35892;48.798;9.698;2022-10-16T04:59:20;13.50;99.90
45535;DHT22;35892;48.798;9.698;2022-10-16T05:01:52;13.50;99.90
45535;DHT22;35892;48.798;9.698;2022-10-16T05:04:19;13.50;99.90
45535;DHT22;35892;48.798;9.698;2022-10-16T05:06:48;13.50;99.90
45535;DHT22;35892;48.798;9.698;2022-10-16T05:09:19;13.50;99.90
45535;DHT22;35892;48.798;9.698;2022-10-16T05:11:46;13.50;99.90
45535;DHT22;35892;48.798;9.698;2022-10-16T05:14:13;13.50;99.90
45535;DHT22;35892;48.798;9.698;2022-10-16T05:16:45;13.50;99.90
45535;DHT22;35892;48.798;9.698;2022-10-16T05:19:13;13.50;99.90
45535;DHT22;35892;48.798;9.698;2022-10-16T05:21:53;13.40;99.90
45535;DHT22;35892;48.798;9.698;2022-10-16T05:24:22;13.40;99.90
45535;DHT22;35892;48.798;9.698;2022-10-16T05:26:49;13.50;99.90
45535;DHT22;35892;48.798;9.698;2022-10-16T05:29:18;13.40;99.90
45535;DHT22;35892;48.798;9.698;2022-10-16T05:31:50;13.50;99.90
45535;DHT22;35892;48.798;9.698;2022-10-16T05:34:18;13.50;99.90
45535;DHT22;35892;48.798;9.698;2022-10-16T05:36:47;13.50;99.90
45535;DHT22;35892;48.798;9.698;2022-10-16T05:39:16;13.50;99.90
45535;DHT22;35892;48.798;9.698;2022-10-16T05:41:45;13.50;99.90
45535;DHT22;35892;48.798;9.698;2022-10-16T05:44:12;13.50;99.90
45535;DHT22;35892;48.798;9.698;2022-10-16T05:46:39;13.50;99.90
45535;DHT22;35892;48.798;9.698;2022-10-16T05:49:06;13.50;99.90
45535;DHT22;35892;48.798;9.698;2022-10-16T05:51:32;13.50;99.90
45535;DHT22;35892;48.798;9.698;2022-10-16T05:53:59;13.50;99.90
45535;DHT22;35892;48.798;9.698;2022-10-16T05:56:28;13.50;99.90
45535;DHT22;35892;48.798;9.698;2022-10-16T05:58:57;13.60;99.90
45535;DHT22;35892;48.798;9.698;2022-10-16T06:01:24;13.60;99.90
45535;DHT22;35892;48.798;9.698;2022-10-16T06:03:52;13.60;99.90
45535;DHT22;35892;48.798;9.698;2022-10-16T06:06:21;13.60;99.90
45535;DHT22;35892;48.798;9.698;2022-10-16T06:08:49;13.60;99.90
45535;DHT22;35892;48.798;9.698;2022-10-16T06:11:27;13.60;99.90
45535;DHT22;35892;48.798;9.698;2022-10-16T06:13:59;13.60;99.90
45535;DHT22;35892;48.798;9.698;2022-10-16T06:16:28;13.50;99.90
45535;DHT22;35892;48.798;9.698;2022-10-16T06:18:57;13.50;99.90
45535;DHT22;35892;48.798;9.698;2022-10-16T06:21:27;13.50;99.90
45535;DHT22;35892;48.798;9.698;2022-10-16T06:23:59;13.50;99.90
45535;DHT22;35892;48.798;9.698;2022-10-16T06:26:28;13.60;99.90
45535;DHT22;35892;48.798;9.698;2022-10-16T06:28:57;13.60;99.90
45535;DHT22;35892;48.798;9.698;2022-10-16T06:31:25;13.70;99.90
45535;DHT22;35892;48.798;9.698;2022-10-16T06:33:57;13.70;99.90
45535;DHT22;35892;48.798;9.698;2022-10-16T06:36:24;13.80;99.90
45535;DHT22;35892;48.798;9.698;2022-10-16T06:38:51;13.80;99.90
45535;DHT22;35892;48.798;9.698;2022-10-16T06:41:20;13.80;99.90
45535;DHT22;35892;48.798;9.698;2022-10-16T06:43:47;13.90;99.90
45535;DHT22;35892;48.798;9.698;2022-10-16T06:46:19;13.90;99.90
45535;DHT22;35892;48.798;9.698;2022-10-16T06:48:49;13.90;99.90
45535;DHT22;35892;48.798;9.698;2022-10-16T06:51:21;14.00;99.90
45535;DHT22;35892;48.798;9.698;2022-10-16T06:53:55;14.10;99.90
45535;DHT22;35892;48.798;9.698;2022-10-16T06:56:33;14.10;99.90
45535;DHT22;35892;48.798;9.698;2022-10-16T06:59:00;14.10;99.90
45535;DHT22;35892;48.798;9.698;2022-10-16T07:01:28;14.30;99.90
45535;DHT22;35892;48.798;9.698;2022-10-16T07:03:59;14.40;99.90
45535;DHT22;35892;48.798;9.698;2022-10-16T07:06:32;14.60;99.90
45535;DHT22;35892;48.798;9.698;2022-10-16T07:09:02;14.70;99.90
45535;DHT22;35892;48.798;9.698;2022-10-16T07:11:32;14.90;99.90
45535;DHT22;35892;48.798;9.698;2022-10-16T07:14:01;15.00;99.90
45535;DHT22;35892;48.798;9.698;2022-10-16T07:16:32;15.10;99.90
45535;DHT22;35892;48.798;9.698;2022-10-16T07:19:02;15.30;99.90
45535;DHT22;35892;48.798;9.698;2022-10-16T07:21:35;15.50;99.90
45535;DHT22;35892;48.798;9.698;2022-10-16T07:24:12;15.60;99.90
45535;DHT22;35892;48.798;9.698;2022-10-16T07:26:41;15.70;99.90
45535;DHT22;35892;48.798;9.698;2022-10-16T07:29:16;15.80;99.90
45535;DHT22;35892;48.798;9.698;2022-10-16T07:31:45;15.80;99.90
45535;DHT22;35892;48.798;9.698;2022-10-16T07:34:16;15.70;99.90
45535;DHT22;35892;48.798;9.698;2022-10-16T07:36:49;15.80;99.90
45535;DHT22;35892;48.798;9.698;2022-10-16T07:39:16;15.80;99.90
45535;DHT22;35892;48.798;9.698;2022-10-16T07:41:46;15.80;99.90
45535;DHT22;35892;48.798;9.698;2022-10-16T07:44:12;15.90;99.90
45535;DHT22;35892;48.798;9.698;2022-10-16T07:46:44;15.90;99.90
45535;DHT22;35892;48.798;9.698;2022-10-16T07:49:10;15.90;99.90
45535;DHT22;35892;48.798;9.698;2022-10-16T07:51:37;15.90;99.90
45535;DHT22;35892;48.798;9.698;2022-10-16T07:54:09;16.00;99.90
45535;DHT22;35892;48.798;9.698;2022-10-16T07:56:38;16.10;99.90
45535;DHT22;35892;48.798;9.698;2022-10-16T07:59:09;16.20;99.90
45535;DHT22;35892;48.798;9.698;2022-10-16T08:01:41;16.20;99.90
45535;DHT22;35892;48.798;9.698;2022-10-16T08:04:11;16.30;99.90
45535;DHT22;35892;48.798;9.698;2022-10-16T08:06:41;16.40;99.90
45535;DHT22;35892;48.798;9.698;2022-10-16T08:09:08;16.50;99.90
45535;DHT22;35892;48.798;9.698;2022-10-16T08:11:37;16.50;99.90
45535;DHT22;35892;48.798;9.698;2022-10-16T08:14:04;16.60;99.90
45535;DHT22;35892;48.798;9.698;2022-10-16T08:16:35;16.60;99.90
45535;DHT22;35892;48.798;9.698;2022-10-16T08:19:04;16.60;99.90
45535;DHT22;35892;48.798;9.698;2022-10-16T08:21:31;16.60;99.90
45535;DHT22;35892;48.798;9.698;2022-10-16T08:24:03;16.50;99.90
45535;DHT22;35892;48.798;9.698;2022-10-16T08:26:34;16.50;99.90
45535;DHT22;35892;48.798;9.698;2022-10-16T08:29:03;16.50;99.90
45535;DHT22;35892;48.798;9.698;2022-10-16T08:31:32;16.50;99.90
45535;DHT22;35892;48.798;9.698;2022-10-16T08:34:01;16.60;99.90
45535;DHT22;35892;48.798;9.698;2022-10-16T08:36:28;16.70;99.90
45535;DHT22;35892;48.798;9.698;2022-10-16T08:38:57;16.90;99.90
45535;DHT22;35892;48.798;9.698;2022-10-16T08:49:27;17.40;99.90
45535;DHT22;35892;48.798;9.698;2022-10-16T08:51:56;17.30;99.90
45535;DHT22;35892;48.798;9.698;2022-10-16T08:57:06;17.30;99.90
45535;DHT22;35892;48.798;9.698;2022-10-16T08:59:36;17.30;99.90
45535;DHT22;35892;48.798;9.698;2022-10-16T09:15:44;18.10;99.90
45535;DHT22;35892;48.798;9.698;2022-10-16T09:18:33;18.30;99.90
45535;DHT22;35892;48.798;9.698;2022-10-16T09:21:09;18.60;99.90
45535;DHT22;35892;48.798;9.698;2022-10-16T09:23:41;18.60;99.90
45535;DHT22;35892;48.798;9.698;2022-10-16T09:26:14;18.50;99.90
45535;DHT22;35892;48.798;9.698;2022-10-16T09:28:41;18.50;99.90
45535;DHT22;35892;48.798;9.698;2022-10-16T09:31:21;18.50;99.90
45535;DHT22;35892;48.798;9.698;2022-10-16T09:33:53;18.50;99.90
45535;DHT22;35892;48.798;9.698;2022-10-16T09:36:25;18.50;99.90
45535;DHT22;35892;48.798;9.698;2022-10-16T09:39:10;18.60;99.90
45535;DHT22;35892;48.798;9.698;2022-10-16T09:41:44;18.70;99.90
45535;DHT22;35892;48.798;9.698;2022-10-16T09:46:45;18.90;99.90
45535;DHT22;35892;48.798;9.698;2022-10-16T09:49:20;19.00;99.90
45535;DHT22;35892;48.798;9.698;2022-10-16T09:52:02;19.10;99.90
45535;DHT22;35892;48.798;9.698;2022-10-16T09:54:31;19.10;99.90
45535;DHT22;35892;48.798;9.698;2022-10-16T09:57:06;19.10;99.90
45535;DHT22;35892;48.798;9.698;2022-10-16T09:59:33;19.20;99.90
45535;DHT22;35892;48.798;9.698;2022-10-16T10:02:10;19.30;99.90
45535;DHT22;35892;48.798;9.698;2022-10-16T10:04:53;19.50;99.90
45535;DHT22;35892;48.798;9.698;2022-10-16T10:07:26;19.60;99.90
45535;DHT22;35892;48.798;9.698;2022-10-16T10:09:56;19.70;99.90
45535;DHT22;35892;48.798;9.698;2022-10-16T10:14:56;20.00;99.90
45535;DHT22;35892;48.798;9.698;2022-10-16T10:17:28;19.90;99.90
45535;DHT22;35892;48.798;9.698;2022-10-16T10:20:13;19.60;99.90
45535;DHT22;35892;48.798;9.698;2022-10-16T10:30:21;18.70;99.90
45535;DHT22;35892;48.798;9.698;2022-10-16T10:36:04;18.60;99.90
45535;DHT22;35892;48.798;9.698;2022-10-16T10:46:55;18.90;99.90
45535;DHT22;35892;48.798;9.698;2022-10-16T10:58:23;19.00;99.90
45535;DHT22;35892;48.798;9.698;2022-10-16T11:01:08;19.10;99.90
45535;DHT22;35892;48.798;9.698;2022-10-16T11:03:56;19.20;99.90
45535;DHT22;35892;48.798;9.698;2022-10-16T11:06:32;19.30;99.90
45535;DHT22;35892;48.798;9.698;2022-10-16T11:11:45;19.50;99.90
45535;DHT22;35892;48.798;9.698;2022-10-16T11:14:23;19.60;99.90
45535;DHT22;35892;48.798;9.698;2022-10-16T11:16:55;19.60;99.90
45535;DHT22;35892;48.798;9.698;2022-10-16T11:24:53;19.70;99.90
45535;DHT22;35892;48.798;9.698;2022-10-16T11:27:27;19.70;99.90
45535;DHT22;35892;48.798;9.698;2022-10-16T11:30:04;19.80;99.90
45535;DHT22;35892;48.798;9.698;2022-10-16T11:32:40;19.80;99.90
45535;DHT22;35892;48.798;9.698;2022-10-16T11:35:19;19.80;99.90
45535;DHT22;35892;48.798;9.698;2022-10-16T11:37:50;19.80;99.90
45535;DHT22;35892;48.798;9.698;2022-10-16T11:40:32;19.80;99.90
45535;DHT22;35892;48.798;9.698;2022-10-16T11:43:24;19.90;99.90
45535;DHT22;35892;48.798;9.698;2022-10-16T11:45:54;19.90;99.90
45535;DHT22;35892;48.798;9.698;2022-10-16T11:48:30;20.00;99.90
45535;DHT22;35892;48.798;9.698;2022-10-16T11:51:16;20.00;99.90
45535;DHT22;35892;48.798;9.698;2022-10-16T11:53:46;20.00;99.90
45535;DHT22;35892;48.798;9.698;2022-10-16T11:56:20;20.10;99.90
45535;DHT22;35892;48.798;9.698;2022-10-16T11:58:58;20.20;99.90
45535;DHT22;35892;48.798;9.698;2022-10-16T12:01:43;20.30;99.90
45535;DHT22;35892;48.798;9.698;2022-10-16T12:09:24;20.60;99.90
45535;DHT22;35892;48.798;9.698;2022-10-16T12:11:51;20.70;99.90
45535;DHT22;35892;48.798;9.698;2022-10-16T12:14:38;20.70;99.90
45535;DHT22;35892;48.798;9.698;2022-10-16T12:17:39;20.80;99.90
45535;DHT22;35892;48.798;9.698;2022-10-16T12:23:03;21.00;99.90
45535;DHT22;35892;48.798;9.698;2022-10-16T12:28:04;21.10;99.90
45535;DHT22;35892;48.798;9.698;2022-10-16T12:30:38;21.20;99.90
45535;DHT22;35892;48.798;9.698;2022-10-16T12:35:49;21.30;99.90
45535;DHT22;35892;48.798;9.698;2022-10-16T12:38:29;21.30;99.90
45535;DHT22;35892;48.798;9.698;2022-10-16T12:41:01;21.20;99.90
45535;DHT22;35892;48.798;9.698;2022-10-16T12:46:02;21.30;99.90
45535;DHT22;35892;48.798;9.698;2022-10-16T12:48:32;21.30;99.90
45535;DHT22;35892;48.798;9.698;2022-10-16T12:51:35;21.30;99.90
45535;DHT22;35892;48.798;9.698;2022-10-16T12:59:17;21.30;99.90
45535;DHT22;35892;48.798;9.698;2022-10-16T13:01:56;21.30;99.90
45535;DHT22;35892;48.798;9.698;2022-10-16T13:24:34;21.40;99.90
45535;DHT22;35892;48.798;9.698;2022-10-16T13:30:07;21.10;99.90
45535;DHT22;35892;48.798;9.698;2022-10-16T13:32:38;21.00;99.90
45535;DHT22;35892;48.798;9.698;2022-10-16T13:35:20;21.00;99.90
45535;DHT22;35892;48.798;9.698;2022-10-16T13:37:50;21.00;99.90
45535;DHT22;35892;48.798;9.698;2022-10-16T13:40:21;21.10;99.90
45535;DHT22;35892;48.798;9.698;2022-10-16T13:42:49;21.10;99.90
45535;DHT22;35892;48.798;9.698;2022-10-16T13:45:20;21.10;99.90
45535;DHT22;35892;48.798;9.698;2022-10-16T13:47:47;21.10;99.90
45535;DHT22;35892;48.798;9.698;2022-10-16T13:50:18;21.10;99.90
45535;DHT22;35892;48.798;9.698;2022-10-16T13:52:45;21.20;99.90
45535;DHT22;35892;48.798;9.698;2022-10-16T13:55:17;21.20;99.90
45535;DHT22;35892;48.798;9.698;2022-10-16T13:57:47;21.20;99.90
45535;DHT22;35892;48.798;9.698;2022-10-16T14:00:26;21.30;99.90
45535;DHT22;35892;48.798;9.698;2022-10-16T14:03:13;21.40;99.90
45535;DHT22;35892;48.798;9.698;2022-10-16T14:05:52;21.40;99.90
45535;DHT22;35892;48.798;9.698;2022-10-16T14:08:20;21.50;99.90
45535;DHT22;35892;48.798;9.698;2022-10-16T14:10:52;21.60;99.90
45535;DHT22;35892;48.798;9.698;2022-10-16T14:13:34;21.60;99.90
45535;DHT22;35892;48.798;9.698;2022-10-16T14:16:10;21.60;99.90
45535;DHT22;35892;48.798;9.698;2022-10-16T14:18:38;21.60;99.90
45535;DHT22;35892;48.798;9.698;2022-10-16T14:21:11;21.60;99.90
45535;DHT22;35892;48.798;9.698;2022-10-16T14:23:39;21.70;99.90
45535;DHT22;35892;48.798;9.698;2022-10-16T14:26:13;21.70;99.90
45535;DHT22;35892;48.798;9.698;2022-10-16T14:28:43;21.70;99.90
45535;DHT22;35892;48.798;9.698;2022-10-16T14:33:46;21.60;99.90
45535;DHT22;35892;48.798;9.698;2022-10-16T14:36:16;21.40;99.90
45535;DHT22;35892;48.798;9.698;2022-10-16T14:39:02;21.20;99.90
45535;DHT22;35892;48.798;9.698;2022-10-16T14:41:32;21.10;99.90
45535;DHT22;35892;48.798;9.698;2022-10-16T14:44:04;21.00;99.90
45535;DHT22;35892;48.798;9.698;2022-10-16T14:46:36;20.90;99.90
45535;DHT22;35892;48.798;9.698;2022-10-16T14:51:41;20.90;99.90
45535;DHT22;35892;48.798;9.698;2022-10-16T14:54:13;20.90;99.90
45535;DHT22;35892;48.798;9.698;2022-10-16T15:01:52;20.80;99.90
45535;DHT22;35892;48.798;9.698;2022-10-16T15:04:21;20.70;99.90
45535;DHT22;35892;48.798;9.698;2022-10-16T15:06:48;20.60;99.90
45535;DHT22;35892;48.798;9.698;2022-10-16T15:09:15;20.50;99.90
45535;DHT22;35892;48.798;9.698;2022-10-16T15:11:44;20.50;99.90
45535;DHT22;35892;48.798;9.698;2022-10-16T15:14:13;20.50;99.90
45535;DHT22;35892;48.798;9.698;2022-10-16T15:16:45;20.40;99.90
45535;DHT22;35892;48.798;9.698;2022-10-16T15:19:14;20.40;99.90
45535;DHT22;35892;48.798;9.698;2022-10-16T15:21:43;20.30;99.90
45535;DHT22;35892;48.798;9.698;2022-10-16T15:24:14;20.30;99.90
45535;DHT22;35892;48.798;9.698;2022-10-16T15:26:46;20.30;99.90
45535;DHT22;35892;48.798;9.698;2022-10-16T15:29:13;20.30;99.90
45535;DHT22;35892;48.798;9.698;2022-10-16T15:31:40;20.20;99.90
45535;DHT22;35892;48.798;9.698;2022-10-16T15:34:14;20.20;99.90
45535;DHT22;35892;48.798;9.698;2022-10-16T15:36:40;20.10;99.90
45535;DHT22;35892;48.798;9.698;2022-10-16T15:39:17;20.00;99.90
45535;DHT22;35892;48.798;9.698;2022-10-16T15:41:47;19.90;99.90
45535;DHT22;35892;48.798;9.698;2022-10-16T15:44:18;19.90;99.90
45535;DHT22;35892;48.798;9.698;2022-10-16T15:46:51;19.80;99.90
45535;DHT22;35892;48.798;9.698;2022-10-16T15:49:20;19.80;99.90
45535;DHT22;35892;48.798;9.698;2022-10-16T15:51:50;19.70;99.90
45535;DHT22;35892;48.798;9.698;2022-10-16T15:54:18;19.70;99.90
45535;DHT22;35892;48.798;9.698;2022-10-16T15:56:48;19.70;99.90
45535;DHT22;35892;48.798;9.698;2022-10-16T15:59:15;19.60;99.90
45535;DHT22;35892;48.798;9.698;2022-10-16T16:01:41;19.50;99.90
45535;DHT22;35892;48.798;9.698;2022-10-16T16:04:08;19.40;99.90
45535;DHT22;35892;48.798;9.698;2022-10-16T16:07:00;19.30;99.90
45535;DHT22;35892;48.798;9.698;2022-10-16T16:09:32;19.20;99.90
45535;DHT22;35892;48.798;9.698;2022-10-16T16:12:01;19.10;99.90
45535;DHT22;35892;48.798;9.698;2022-10-16T16:14:28;19.00;99.90
45535;DHT22;35892;48.798;9.698;2022-10-16T16:16:57;19.00;99.90
45535;DHT22;35892;48.798;9.698;2022-10-16T16:19:24;18.90;99.90
45535;DHT22;35892;48.798;9.698;2022-10-16T16:21:51;18.80;99.90
45535;DHT22;35892;48.798;9.698;2022-10-16T16:24:17;18.70;99.90
45535;DHT22;35892;48.798;9.698;2022-10-16T16:26:46;18.60;99.90
45535;DHT22;35892;48.798;9.698;2022-10-16T16:29:14;18.60;99.90
45535;DHT22;35892;48.798;9.698;2022-10-16T16:31:44;18.50;99.90
45535;DHT22;35892;48.798;9.698;2022-10-16T16:34:13;18.40;99.90
45535;DHT22;35892;48.798;9.698;2022-10-16T16:36:42;18.40;99.90
45535;DHT22;35892;48.798;9.698;2022-10-16T16:39:09;18.30;99.90
45535;DHT22;35892;48.798;9.698;2022-10-16T16:41:37;18.20;99.90
45535;DHT22;35892;48.798;9.698;2022-10-16T16:44:06;18.20;99.90
45535;DHT22;35892;48.798;9.698;2022-10-16T16:46:34;18.10;99.90
45535;DHT22;35892;48.798;9.698;2022-10-16T16:49:01;18.00;99.90
45535;DHT22;35892;48.798;9.698;2022-10-16T16:51:29;18.00;99.90
45535;DHT22;35892;48.798;9.698;2022-10-16T16:53:58;17.90;99.90
45535;DHT22;35892;48.798;9.698;2022-10-16T16:56:27;17.90;99.90
45535;DHT22;35892;48.798;9.698;2022-10-16T16:58:57;17.80;99.90
45535;DHT22;35892;48.798;9.698;2022-10-16T17:01:26;17.80;99.90
45535;DHT22;35892;48.798;9.698;2022-10-16T17:03:55;17.70;99.90
45535;DHT22;35892;48.798;9.698;2022-10-16T17:06:27;17.70;99.90
45535;DHT22;35892;48.798;9.698;2022-10-16T17:08:56;17.70;99.90
45535;DHT22;35892;48.798;9.698;2022-10-16T17:11:25;17.60;99.90
45535;DHT22;35892;48.798;9.698;2022-10-16T17:13:55;17.60;99.90
45535;DHT22;35892;48.798;9.698;2022-10-16T17:16:27;17.50;99.90
45535;DHT22;35892;48.798;9.698;2022-10-16T17:19:02;17.40;99.90
45535;DHT22;35892;48.798;9.698;2022-10-16T17:21:29;17.40;99.90
45535;DHT22;35892;48.798;9.698;2022-10-16T17:23:58;17.40;99.90
45535;DHT22;35892;48.798;9.698;2022-10-16T17:26:29;17.30;99.90
45535;DHT22;35892;48.798;9.698;2022-10-16T17:29:00;17.30;99.90
45535;DHT22;35892;48.798;9.698;2022-10-16T17:31:32;17.30;99.90
45535;DHT22;35892;48.798;9.698;2022-10-16T17:34:00;17.30;99.90
45535;DHT22;35892;48.798;9.698;2022-10-16T17:36:30;17.30;99.90
45535;DHT22;35892;48.798;9.698;2022-10-16T17:39:04;17.30;99.90
45535;DHT22;35892;48.798;9.698;2022-10-16T17:41:35;17.20;99.90
45535;DHT22;35892;48.798;9.698;2022-10-16T17:44:03;17.20;99.90
45535;DHT22;35892;48.798;9.698;2022-10-16T17:46:30;17.20;99.90
45535;DHT22;35892;48.798;9.698;2022-10-16T17:49:04;17.20;99.90
45535;DHT22;35892;48.798;9.698;2022-10-16T17:51:31;17.20;99.90
45535;DHT22;35892;48.798;9.698;2022-10-16T17:53:59;17.10;99.90
45535;DHT22;35892;48.798;9.698;2022-10-16T17:56:27;17.10;99.90
45535;DHT22;35892;48.798;9.698;2022-10-16T17:58:58;17.00;99.90
45535;DHT22;35892;48.798;9.698;2022-10-16T18:01:33;17.00;99.90
45535;DHT22;35892;48.798;9.698;2022-10-16T18:06:29;16.80;99.90
45535;DHT22;35892;48.798;9.698;2022-10-16T18:08:57;16.80;99.90
45535;DHT22;35892;48.798;9.698;2022-10-16T18:11:24;16.70;99.90
45535;DHT22;35892;48.798;9.698;2022-10-16T18:13:54;16.60;99.90
45535;DHT22;35892;48.798;9.698;2022-10-16T18:16:22;16.60;99.90
45535;DHT22;35892;48.798;9.698;2022-10-16T18:18:49;16.60;99.90